sensor_id;sensor_type;location;lat;lon;timestamp;P1;durP1;ratioP1;P2;durP2;ratioP2
44842;SDS011;31884;52.538;13.820;2022-10-31T00:01:02;31.02;;;16.00;;
44842;SDS011;31884;52.538;13.820;2022-10-31T00:03:35;23.08;;;15.05;;
44842;SDS011;31884;52.538;13.820;2022-10-31T00:06:00;24.48;;;14.98;;
44842;SDS011;31884;52.538;13.820;2022-10-31T00:08:26;29.95;;;18.80;;
44842;SDS011;31884;52.538;13.820;2022-10-31T00:10:52;27.48;;;17.00;;
44842;SDS011;31884;52.538;13.820;2022-10-31T00:13:17;31.20;;;17.73;;
44842;SDS011;31884;52.538;13.820;2022-10-31T00:15:43;34.70;;;17.52;;
44842;SDS011;31884;52.538;13.820;2022-10-31T00:18:08;24.88;;;15.75;;
44842;SDS011;31884;52.538;13.820;2022-10-31T00:20:35;25.40;;;15.93;;
44842;SDS011;31884;52.538;13.820;2022-10-31T00:23:01;22.92;;;15.40;;
44842;SDS011;31884;52.538;13.820;2022-10-31T00:25:27;30.90;;;18.58;;
44842;SDS011;31884;52.538;13.820;2022-10-31T00:27:54;29.95;;;16.67;;
44842;SDS011;31884;52.538;13.820;2022-10-31T00:30:20;27.95;;;17.70;;
44842;SDS011;31884;52.538;13.820;2022-10-31T00:32:45;32.38;;;16.63;;
44842;SDS011;31884;52.538;13.820;2022-10-31T00:35:11;30.45;;;18.35;;
44842;SDS011;31884;52.538;13.820;2022-10-31T00:37:36;29.65;;;17.48;;
44842;SDS011;31884;52.538;13.820;2022-10-31T00:40:02;35.50;;;20.25;;
44842;SDS011;31884;52.538;13.820;2022-10-31T00:42:28;32.65;;;17.95;;
44842;SDS011;31884;52.538;13.820;2022-10-31T00:44:53;26.88;;;17.88;;
44842;SDS011;31884;52.538;13.820;2022-10-31T00:47:19;28.02;;;17.05;;
44842;SDS011;31884;52.538;13.820;2022-10-31T00:49:44;28.45;;;17.10;;
44842;SDS011;31884;52.538;13.820;2022-10-31T00:52:10;22.65;;;15.00;;
44842;SDS011;31884;52.538;13.820;2022-10-31T00:54:35;27.63;;;15.20;;
44842;SDS011;31884;52.538;13.820;2022-10-31T00:57:01;30.55;;;16.65;;
44842;SDS011;31884;52.538;13.820;2022-10-31T00:59:26;27.77;;;17.00;;
44842;SDS011;31884;52.538;13.820;2022-10-31T01:01:51;34.95;;;17.17;;
44842;SDS011;31884;52.538;13.820;2022-10-31T01:04:17;31.25;;;15.93;;
44842;SDS011;31884;52.538;13.820;2022-10-31T01:06:42;23.73;;;15.73;;
44842;SDS011;31884;52.538;13.820;2022-10-31T01:09:08;26.35;;;16.10;;
44842;SDS011;31884;52.538;13.820;2022-10-31T01:11:33;28.77;;;16.02;;
44842;SDS011;31884;52.538;13.820;2022-10-31T01:13:59;28.15;;;16.65;;
44842;SDS011;31884;52.538;13.820;2022-10-31T01:16:25;28.33;;;16.05;;
44842;SDS011;31884;52.538;13.820;2022-10-31T01:18:51;28.33;;;16.50;;
44842;SDS011;31884;52.538;13.820;2022-10-31T01:21:18;26.05;;;16.55;;
44842;SDS011;31884;52.538;13.820;2022-10-31T01:23:46;25.42;;;15.25;;
44842;SDS011;31884;52.538;13.820;2022-10-31T01:26:15;26.05;;;16.23;;
44842;SDS011;31884;52.538;13.820;2022-10-31T01:28:47;23.17;;;14.98;;
44842;SDS011;31884;52.538;13.820;2022-10-31T01:31:15;32.28;;;17.42;;
44842;SDS011;31884;52.538;13.820;2022-10-31T01:33:42;31.45;;;16.60;;
44842;SDS011;31884;52.538;13.820;2022-10-31T01:36:11;27.50;;;16.17;;
44842;SDS011;31884;52.538;13.820;2022-10-31T01:38:47;28.90;;;15.98;;
44842;SDS011;31884;52.538;13.820;2022-10-31T01:41:15;26.25;;;16.27;;
44842;SDS011;31884;52.538;13.820;2022-10-31T01:46:14;15.93;;;12.45;;
44842;SDS011;31884;52.538;13.820;2022-10-31T01:48:42;26.40;;;14.93;;
44842;SDS011;31884;52.538;13.820;2022-10-31T01:51:08;30.40;;;16.65;;
44842;SDS011;31884;52.538;13.820;2022-10-31T01:53:35;22.38;;;14.55;;
44842;SDS011;31884;52.538;13.820;2022-10-31T01:56:01;22.98;;;14.93;;
44842;SDS011;31884;52.538;13.820;2022-10-31T01:58:28;26.58;;;15.43;;
44842;SDS011;31884;52.538;13.820;2022-10-31T02:00:56;29.30;;;16.00;;
44842;SDS011;31884;52.538;13.820;2022-10-31T02:03:23;30.17;;;16.15;;
44842;SDS011;31884;52.538;13.820;2022-10-31T02:05:50;27.08;;;16.73;;
44842;SDS011;31884;52.538;13.820;2022-10-31T02:08:29;26.52;;;16.50;;
44842;SDS011;31884;52.538;13.820;2022-10-31T02:10:56;23.13;;;15.77;;
44842;SDS011;31884;52.538;13.820;2022-10-31T02:13:23;25.63;;;16.83;;
44842;SDS011;31884;52.538;13.820;2022-10-31T02:15:51;25.27;;;15.13;;
44842;SDS011;31884;52.538;13.820;2022-10-31T02:18:19;21.38;;;14.10;;
44842;SDS011;31884;52.538;13.820;2022-10-31T02:20:48;24.02;;;14.43;;
44842;SDS011;31884;52.538;13.820;2022-10-31T02:25:59;20.90;;;14.63;;
44842;SDS011;31884;52.538;13.820;2022-10-31T02:29:20;22.10;;;14.40;;
44842;SDS011;31884;52.538;13.820;2022-10-31T02:31:57;36.10;;;15.90;;
44842;SDS011;31884;52.538;13.820;2022-10-31T02:34:48;24.45;;;13.82;;
44842;SDS011;31884;52.538;13.820;2022-10-31T02:37:45;24.35;;;14.00;;
44842;SDS011;31884;52.538;13.820;2022-10-31T02:40:10;22.83;;;15.38;;
44842;SDS011;31884;52.538;13.820;2022-10-31T02:42:57;26.23;;;13.80;;
44842;SDS011;31884;52.538;13.820;2022-10-31T02:48:00;25.25;;;14.60;;
44842;SDS011;31884;52.538;13.820;2022-10-31T02:50:33;46.30;;;16.58;;
44842;SDS011;31884;52.538;13.820;2022-10-31T02:53:02;77.50;;;19.45;;
44842;SDS011;31884;52.538;13.820;2022-10-31T02:57:57;51.45;;;18.83;;
44842;SDS011;31884;52.538;13.820;2022-10-31T03:00:34;45.67;;;18.33;;
44842;SDS011;31884;52.538;13.820;2022-10-31T03:03:14;41.95;;;17.77;;
44842;SDS011;31884;52.538;13.820;2022-10-31T03:08:15;49.92;;;18.77;;
44842;SDS011;31884;52.538;13.820;2022-10-31T03:11:03;54.60;;;17.65;;
44842;SDS011;31884;52.538;13.820;2022-10-31T03:16:13;55.00;;;18.23;;
44842;SDS011;31884;52.538;13.820;2022-10-31T03:21:17;66.88;;;18.67;;
44842;SDS011;31884;52.538;13.820;2022-10-31T03:23:47;44.30;;;17.25;;
44842;SDS011;31884;52.538;13.820;2022-10-31T03:26:15;35.30;;;16.48;;
44842;SDS011;31884;52.538;13.820;2022-10-31T03:28:43;34.92;;;16.55;;
44842;SDS011;31884;52.538;13.820;2022-10-31T03:31:29;35.00;;;16.75;;
44842;SDS011;31884;52.538;13.820;2022-10-31T03:34:00;30.73;;;16.67;;
44842;SDS011;31884;52.538;13.820;2022-10-31T03:36:27;35.47;;;17.40;;
44842;SDS011;31884;52.538;13.820;2022-10-31T03:38:55;30.73;;;17.17;;
44842;SDS011;31884;52.538;13.820;2022-10-31T03:41:23;37.03;;;17.70;;
44842;SDS011;31884;52.538;13.820;2022-10-31T03:44:03;36.83;;;18.05;;
44842;SDS011;31884;52.538;13.820;2022-10-31T03:46:41;42.47;;;16.85;;
44842;SDS011;31884;52.538;13.820;2022-10-31T03:49:07;58.42;;;18.27;;
44842;SDS011;31884;52.538;13.820;2022-10-31T03:51:39;53.67;;;18.00;;
44842;SDS011;31884;52.538;13.820;2022-10-31T03:54:09;53.35;;;17.75;;
44842;SDS011;31884;52.538;13.820;2022-10-31T03:56:46;50.75;;;18.23;;
44842;SDS011;31884;52.538;13.820;2022-10-31T03:59:36;56.10;;;20.23;;
44842;SDS011;31884;52.538;13.820;2022-10-31T04:02:06;42.30;;;17.92;;
44842;SDS011;31884;52.538;13.820;2022-10-31T04:04:35;38.25;;;16.90;;
44842;SDS011;31884;52.538;13.820;2022-10-31T04:07:02;40.50;;;17.80;;
44842;SDS011;31884;52.538;13.820;2022-10-31T04:09:31;38.58;;;17.70;;
44842;SDS011;31884;52.538;13.820;2022-10-31T04:11:59;25.98;;;15.93;;
44842;SDS011;31884;52.538;13.820;2022-10-31T04:14:26;26.48;;;14.88;;
44842;SDS011;31884;52.538;13.820;2022-10-31T04:16:54;33.05;;;15.35;;
44842;SDS011;31884;52.538;13.820;2022-10-31T04:19:20;39.55;;;16.60;;
44842;SDS011;31884;52.538;13.820;2022-10-31T04:21:46;41.47;;;16.45;;
44842;SDS011;31884;52.538;13.820;2022-10-31T04:24:11;42.95;;;16.55;;
44842;SDS011;31884;52.538;13.820;2022-10-31T04:26:37;28.10;;;15.63;;
44842;SDS011;31884;52.538;13.820;2022-10-31T04:29:02;32.97;;;15.30;;
44842;SDS011;31884;52.538;13.820;2022-10-31T04:31:28;30.95;;;14.40;;
44842;SDS011;31884;52.538;13.820;2022-10-31T04:33:53;34.03;;;14.80;;
44842;SDS011;31884;52.538;13.820;2022-10-31T04:36:19;28.15;;;14.02;;
44842;SDS011;31884;52.538;13.820;2022-10-31T04:38:44;51.00;;;16.33;;
44842;SDS011;31884;52.538;13.820;2022-10-31T04:41:10;17.20;;;12.05;;
44842;SDS011;31884;52.538;13.820;2022-10-31T04:43:35;38.78;;;14.98;;
44842;SDS011;31884;52.538;13.820;2022-10-31T04:46:01;18.92;;;12.05;;
44842;SDS011;31884;52.538;13.820;2022-10-31T04:48:27;18.35;;;11.40;;
44842;SDS011;31884;52.538;13.820;2022-10-31T04:50:52;27.08;;;13.45;;
44842;SDS011;31884;52.538;13.820;2022-10-31T04:53:22;27.80;;;14.27;;
44842;SDS011;31884;52.538;13.820;2022-10-31T04:55:48;25.92;;;13.52;;
44842;SDS011;31884;52.538;13.820;2022-10-31T04:58:13;24.98;;;13.70;;
44842;SDS011;31884;52.538;13.820;2022-10-31T05:00:39;28.00;;;14.98;;
44842;SDS011;31884;52.538;13.820;2022-10-31T05:03:04;24.75;;;13.40;;
44842;SDS011;31884;52.538;13.820;2022-10-31T05:05:30;32.22;;;15.45;;
44842;SDS011;31884;52.538;13.820;2022-10-31T05:07:56;53.20;;;14.00;;
44842;SDS011;31884;52.538;13.820;2022-10-31T05:10:23;31.60;;;15.02;;
44842;SDS011;31884;52.538;13.820;2022-10-31T05:12:51;17.67;;;11.43;;
44842;SDS011;31884;52.538;13.820;2022-10-31T05:15:22;21.15;;;13.60;;
44842;SDS011;31884;52.538;13.820;2022-10-31T05:17:48;24.77;;;14.25;;
44842;SDS011;31884;52.538;13.820;2022-10-31T05:20:15;27.38;;;14.20;;
44842;SDS011;31884;52.538;13.820;2022-10-31T05:22:48;28.70;;;14.65;;
44842;SDS011;31884;52.538;13.820;2022-10-31T05:25:16;27.13;;;14.65;;
44842;SDS011;31884;52.538;13.820;2022-10-31T05:27:43;26.02;;;14.48;;
44842;SDS011;31884;52.538;13.820;2022-10-31T05:30:11;20.58;;;13.68;;
44842;SDS011;31884;52.538;13.820;2022-10-31T05:32:42;27.73;;;13.68;;
44842;SDS011;31884;52.538;13.820;2022-10-31T05:35:10;20.65;;;14.07;;
44842;SDS011;31884;52.538;13.820;2022-10-31T05:37:37;28.55;;;15.50;;
44842;SDS011;31884;52.538;13.820;2022-10-31T05:40:03;22.55;;;13.27;;
44842;SDS011;31884;52.538;13.820;2022-10-31T05:42:31;24.83;;;15.02;;
44842;SDS011;31884;52.538;13.820;2022-10-31T05:44:56;21.58;;;14.07;;
44842;SDS011;31884;52.538;13.820;2022-10-31T05:47:22;27.95;;;15.10;;
44842;SDS011;31884;52.538;13.820;2022-10-31T05:49:47;27.25;;;15.90;;
44842;SDS011;31884;52.538;13.820;2022-10-31T05:52:13;46.30;;;13.63;;
44842;SDS011;31884;52.538;13.820;2022-10-31T05:54:39;51.55;;;16.92;;
44842;SDS011;31884;52.538;13.820;2022-10-31T05:57:04;49.78;;;16.38;;
44842;SDS011;31884;52.538;13.820;2022-10-31T05:59:30;34.17;;;15.10;;
44842;SDS011;31884;52.538;13.820;2022-10-31T06:01:55;51.15;;;16.42;;
44842;SDS011;31884;52.538;13.820;2022-10-31T06:04:21;49.15;;;18.25;;
44842;SDS011;31884;52.538;13.820;2022-10-31T06:06:46;33.90;;;16.00;;
44842;SDS011;31884;52.538;13.820;2022-10-31T06:09:12;51.08;;;16.95;;
44842;SDS011;31884;52.538;13.820;2022-10-31T06:11:37;48.20;;;18.08;;
44842;SDS011;31884;52.538;13.820;2022-10-31T06:14:03;47.92;;;17.15;;
44842;SDS011;31884;52.538;13.820;2022-10-31T06:16:29;38.10;;;16.33;;
44842;SDS011;31884;52.538;13.820;2022-10-31T06:18:54;38.20;;;16.05;;
44842;SDS011;31884;52.538;13.820;2022-10-31T06:21:20;41.75;;;16.45;;
44842;SDS011;31884;52.538;13.820;2022-10-31T06:23:45;27.95;;;13.30;;
44842;SDS011;31884;52.538;13.820;2022-10-31T06:26:11;26.73;;;15.63;;
44842;SDS011;31884;52.538;13.820;2022-10-31T06:28:36;27.50;;;16.73;;
44842;SDS011;31884;52.538;13.820;2022-10-31T06:31:02;27.52;;;16.90;;
44842;SDS011;31884;52.538;13.820;2022-10-31T06:33:27;23.45;;;13.35;;
44842;SDS011;31884;52.538;13.820;2022-10-31T06:35:53;29.23;;;15.45;;
44842;SDS011;31884;52.538;13.820;2022-10-31T06:38:18;28.23;;;17.17;;
44842;SDS011;31884;52.538;13.820;2022-10-31T06:40:44;28.88;;;15.75;;
44842;SDS011;31884;52.538;13.820;2022-10-31T06:43:09;23.95;;;14.38;;
44842;SDS011;31884;52.538;13.820;2022-10-31T06:45:36;25.73;;;15.23;;
44842;SDS011;31884;52.538;13.820;2022-10-31T06:48:01;26.42;;;15.77;;
44842;SDS011;31884;52.538;13.820;2022-10-31T06:50:27;29.67;;;16.73;;
44842;SDS011;31884;52.538;13.820;2022-10-31T06:52:53;28.33;;;14.70;;
44842;SDS011;31884;52.538;13.820;2022-10-31T06:55:20;45.63;;;15.80;;
44842;SDS011;31884;52.538;13.820;2022-10-31T06:57:57;33.70;;;15.35;;
44842;SDS011;31884;52.538;13.820;2022-10-31T07:00:25;27.35;;;13.88;;
44842;SDS011;31884;52.538;13.820;2022-10-31T07:02:59;16.98;;;12.38;;
44842;SDS011;31884;52.538;13.820;2022-10-31T07:05:26;23.30;;;13.80;;
44842;SDS011;31884;52.538;13.820;2022-10-31T07:07:53;24.17;;;13.85;;
44842;SDS011;31884;52.538;13.820;2022-10-31T07:10:20;17.27;;;11.80;;
44842;SDS011;31884;52.538;13.820;2022-10-31T07:12:45;18.92;;;13.45;;
44842;SDS011;31884;52.538;13.820;2022-10-31T07:15:11;18.98;;;13.23;;
44842;SDS011;31884;52.538;13.820;2022-10-31T07:17:36;16.45;;;11.52;;
44842;SDS011;31884;52.538;13.820;2022-10-31T07:20:02;16.13;;;11.05;;
44842;SDS011;31884;52.538;13.820;2022-10-31T07:22:37;13.52;;;10.50;;
44842;SDS011;31884;52.538;13.820;2022-10-31T07:25:02;14.60;;;10.02;;
44842;SDS011;31884;52.538;13.820;2022-10-31T07:27:28;17.77;;;11.13;;
44842;SDS011;31884;52.538;13.820;2022-10-31T07:29:59;14.00;;;10.85;;
44842;SDS011;31884;52.538;13.820;2022-10-31T07:32:25;12.02;;;9.63;;
44842;SDS011;31884;52.538;13.820;2022-10-31T07:34:50;13.77;;;10.50;;
44842;SDS011;31884;52.538;13.820;2022-10-31T07:37:16;13.45;;;10.98;;
44842;SDS011;31884;52.538;13.820;2022-10-31T07:39:41;13.85;;;11.02;;
44842;SDS011;31884;52.538;13.820;2022-10-31T07:42:07;14.00;;;10.15;;
44842;SDS011;31884;52.538;13.820;2022-10-31T07:44:32;12.00;;;10.35;;
44842;SDS011;31884;52.538;13.820;2022-10-31T07:46:58;14.05;;;10.10;;
44842;SDS011;31884;52.538;13.820;2022-10-31T07:49:23;13.55;;;10.32;;
44842;SDS011;31884;52.538;13.820;2022-10-31T07:51:50;12.95;;;10.05;;
44842;SDS011;31884;52.538;13.820;2022-10-31T07:54:15;10.90;;;8.63;;
44842;SDS011;31884;52.538;13.820;2022-10-31T07:56:41;14.60;;;9.63;;
44842;SDS011;31884;52.538;13.820;2022-10-31T07:59:06;13.77;;;8.98;;
44842;SDS011;31884;52.538;13.820;2022-10-31T08:01:32;11.18;;;9.40;;
44842;SDS011;31884;52.538;13.820;2022-10-31T08:03:57;11.88;;;8.18;;
44842;SDS011;31884;52.538;13.820;2022-10-31T08:06:23;12.82;;;8.57;;
44842;SDS011;31884;52.538;13.820;2022-10-31T08:08:48;14.98;;;7.95;;
44842;SDS011;31884;52.538;13.820;2022-10-31T08:11:14;12.40;;;9.30;;
44842;SDS011;31884;52.538;13.820;2022-10-31T08:13:39;13.18;;;9.18;;
44842;SDS011;31884;52.538;13.820;2022-10-31T08:16:05;13.38;;;8.68;;
44842;SDS011;31884;52.538;13.820;2022-10-31T08:18:32;12.82;;;8.88;;
44842;SDS011;31884;52.538;13.820;2022-10-31T08:20:57;9.68;;;7.85;;
44842;SDS011;31884;52.538;13.820;2022-10-31T08:23:23;12.23;;;8.38;;
44842;SDS011;31884;52.538;13.820;2022-10-31T08:25:48;13.65;;;7.97;;
44842;SDS011;31884;52.538;13.820;2022-10-31T08:28:14;9.68;;;7.65;;
44842;SDS011;31884;52.538;13.820;2022-10-31T08:30:40;9.32;;;7.45;;
44842;SDS011;31884;52.538;13.820;2022-10-31T08:33:08;13.43;;;8.43;;
44842;SDS011;31884;52.538;13.820;2022-10-31T08:35:39;13.23;;;8.20;;
44842;SDS011;31884;52.538;13.820;2022-10-31T08:38:05;13.65;;;7.82;;
44842;SDS011;31884;52.538;13.820;2022-10-31T08:40:32;12.23;;;8.02;;
44842;SDS011;31884;52.538;13.820;2022-10-31T08:43:01;9.57;;;7.60;;
44842;SDS011;31884;52.538;13.820;2022-10-31T08:45:28;13.15;;;8.30;;
44842;SDS011;31884;52.538;13.820;2022-10-31T08:47:58;11.10;;;7.90;;
44842;SDS011;31884;52.538;13.820;2022-10-31T08:50:29;14.55;;;9.15;;
44842;SDS011;31884;52.538;13.820;2022-10-31T08:52:59;12.82;;;8.25;;
44842;SDS011;31884;52.538;13.820;2022-10-31T08:55:29;9.57;;;7.18;;
44842;SDS011;31884;52.538;13.820;2022-10-31T08:57:55;13.45;;;7.65;;
44842;SDS011;31884;52.538;13.820;2022-10-31T09:00:22;15.88;;;10.10;;
44842;SDS011;31884;52.538;13.820;2022-10-31T09:02:47;17.48;;;8.77;;
44842;SDS011;31884;52.538;13.820;2022-10-31T09:05:13;10.05;;;7.70;;
44842;SDS011;31884;52.538;13.820;2022-10-31T09:07:38;11.60;;;8.15;;
44842;SDS011;31884;52.538;13.820;2022-10-31T09:10:04;14.07;;;9.32;;
44842;SDS011;31884;52.538;13.820;2022-10-31T09:12:30;13.68;;;9.23;;
44842;SDS011;31884;52.538;13.820;2022-10-31T09:14:55;15.55;;;9.18;;
44842;SDS011;31884;52.538;13.820;2022-10-31T09:17:21;13.50;;;8.50;;
44842;SDS011;31884;52.538;13.820;2022-10-31T09:19:46;17.55;;;8.32;;
44842;SDS011;31884;52.538;13.820;2022-10-31T09:22:11;15.40;;;8.85;;
44842;SDS011;31884;52.538;13.820;2022-10-31T09:24:37;13.05;;;9.07;;
44842;SDS011;31884;52.538;13.820;2022-10-31T09:27:02;12.05;;;8.63;;
44842;SDS011;31884;52.538;13.820;2022-10-31T09:29:28;13.50;;;9.52;;
44842;SDS011;31884;52.538;13.820;2022-10-31T09:31:55;13.10;;;8.50;;
44842;SDS011;31884;52.538;13.820;2022-10-31T09:34:21;16.40;;;8.90;;
44842;SDS011;31884;52.538;13.820;2022-10-31T09:36:46;9.35;;;7.60;;
44842;SDS011;31884;52.538;13.820;2022-10-31T09:39:12;15.70;;;8.75;;
44842;SDS011;31884;52.538;13.820;2022-10-31T09:44:31;12.90;;;8.18;;
44842;SDS011;31884;52.538;13.820;2022-10-31T09:47:19;15.13;;;8.60;;
44842;SDS011;31884;52.538;13.820;2022-10-31T09:50:12;16.02;;;8.70;;
44842;SDS011;31884;52.538;13.820;2022-10-31T09:53:00;11.88;;;8.18;;
44842;SDS011;31884;52.538;13.820;2022-10-31T09:55:37;15.35;;;9.07;;
44842;SDS011;31884;52.538;13.820;2022-10-31T09:58:05;18.92;;;10.35;;
44842;SDS011;31884;52.538;13.820;2022-10-31T10:00:40;12.88;;;8.55;;
44842;SDS011;31884;52.538;13.820;2022-10-31T10:03:10;16.20;;;9.63;;
44842;SDS011;31884;52.538;13.820;2022-10-31T10:05:55;15.70;;;9.90;;
44842;SDS011;31884;52.538;13.820;2022-10-31T10:08:32;17.17;;;8.82;;
44842;SDS011;31884;52.538;13.820;2022-10-31T10:24:52;14.10;;;8.65;;
44842;SDS011;31884;52.538;13.820;2022-10-31T10:27:27;12.52;;;8.30;;
44842;SDS011;31884;52.538;13.820;2022-10-31T10:30:04;13.80;;;8.40;;
44842;SDS011;31884;52.538;13.820;2022-10-31T10:32:40;16.38;;;9.18;;
44842;SDS011;31884;52.538;13.820;2022-10-31T10:40:58;19.45;;;10.00;;
44842;SDS011;31884;52.538;13.820;2022-10-31T10:43:29;12.90;;;8.50;;
44842;SDS011;31884;52.538;13.820;2022-10-31T10:51:23;15.75;;;9.93;;
44842;SDS011;31884;52.538;13.820;2022-10-31T10:54:36;20.45;;;9.25;;
44842;SDS011;31884;52.538;13.820;2022-10-31T10:59:44;14.27;;;8.98;;
44842;SDS011;31884;52.538;13.820;2022-10-31T11:02:21;17.65;;;8.45;;
44842;SDS011;31884;52.538;13.820;2022-10-31T11:04:51;16.98;;;9.02;;
44842;SDS011;31884;52.538;13.820;2022-10-31T11:07:19;20.30;;;10.02;;
44842;SDS011;31884;52.538;13.820;2022-10-31T11:09:45;15.55;;;9.55;;
44842;SDS011;31884;52.538;13.820;2022-10-31T11:12:21;14.52;;;9.35;;
44842;SDS011;31884;52.538;13.820;2022-10-31T11:14:53;14.40;;;8.70;;
44842;SDS011;31884;52.538;13.820;2022-10-31T11:17:42;15.18;;;8.80;;
44842;SDS011;31884;52.538;13.820;2022-10-31T11:22:37;18.52;;;10.30;;
44842;SDS011;31884;52.538;13.820;2022-10-31T11:25:21;19.33;;;9.80;;
44842;SDS011;31884;52.538;13.820;2022-10-31T11:30:45;17.10;;;8.55;;
44842;SDS011;31884;52.538;13.820;2022-10-31T11:33:16;15.70;;;8.73;;
44842;SDS011;31884;52.538;13.820;2022-10-31T11:36:02;20.80;;;9.20;;
44842;SDS011;31884;52.538;13.820;2022-10-31T11:38:43;16.38;;;9.20;;
44842;SDS011;31884;52.538;13.820;2022-10-31T11:43:37;14.95;;;8.93;;
44842;SDS011;31884;52.538;13.820;2022-10-31T11:46:11;15.75;;;9.98;;
44842;SDS011;31884;52.538;13.820;2022-10-31T11:48:46;14.02;;;9.23;;
44842;SDS011;31884;52.538;13.820;2022-10-31T11:51:19;17.58;;;9.73;;
44842;SDS011;31884;52.538;13.820;2022-10-31T11:53:50;17.33;;;9.15;;
44842;SDS011;31884;52.538;13.820;2022-10-31T11:56:18;14.60;;;9.20;;
44842;SDS011;31884;52.538;13.820;2022-10-31T11:58:54;12.23;;;7.78;;
44842;SDS011;31884;52.538;13.820;2022-10-31T12:01:28;13.93;;;8.32;;
44842;SDS011;31884;52.538;13.820;2022-10-31T12:06:35;17.17;;;9.20;;
44842;SDS011;31884;52.538;13.820;2022-10-31T12:09:20;14.60;;;9.18;;
44842;SDS011;31884;52.538;13.820;2022-10-31T12:12:01;16.45;;;8.50;;
44842;SDS011;31884;52.538;13.820;2022-10-31T12:14:35;13.77;;;7.13;;
44842;SDS011;31884;52.538;13.820;2022-10-31T12:17:15;16.30;;;8.50;;
44842;SDS011;31884;52.538;13.820;2022-10-31T12:19:51;13.73;;;8.43;;
44842;SDS011;31884;52.538;13.820;2022-10-31T12:22:33;16.77;;;9.13;;
44842;SDS011;31884;52.538;13.820;2022-10-31T12:28:01;16.88;;;7.90;;
44842;SDS011;31884;52.538;13.820;2022-10-31T12:30:40;17.58;;;9.40;;
44842;SDS011;31884;52.538;13.820;2022-10-31T12:35:51;10.85;;;7.10;;
44842;SDS011;31884;52.538;13.820;2022-10-31T12:38:35;11.50;;;8.18;;
44842;SDS011;31884;52.538;13.820;2022-10-31T12:41:17;14.15;;;8.75;;
44842;SDS011;31884;52.538;13.820;2022-10-31T12:44:06;13.07;;;8.70;;
44842;SDS011;31884;52.538;13.820;2022-10-31T12:50:24;14.68;;;7.60;;
44842;SDS011;31884;52.538;13.820;2022-10-31T12:55:50;12.02;;;7.95;;
44842;SDS011;31884;52.538;13.820;2022-10-31T12:58:35;16.67;;;7.78;;
44842;SDS011;31884;52.538;13.820;2022-10-31T13:01:09;14.93;;;7.93;;
44842;SDS011;31884;52.538;13.820;2022-10-31T13:06:19;14.82;;;7.82;;
44842;SDS011;31884;52.538;13.820;2022-10-31T13:08:53;11.88;;;7.20;;
44842;SDS011;31884;52.538;13.820;2022-10-31T13:14:04;13.13;;;8.30;;
44842;SDS011;31884;52.538;13.820;2022-10-31T13:16:42;18.25;;;8.55;;
44842;SDS011;31884;52.538;13.820;2022-10-31T13:19:14;11.05;;;7.55;;
44842;SDS011;31884;52.538;13.820;2022-10-31T13:21:51;14.60;;;9.25;;
44842;SDS011;31884;52.538;13.820;2022-10-31T13:24:21;20.70;;;11.05;;
44842;SDS011;31884;52.538;13.820;2022-10-31T13:27:02;15.80;;;9.32;;
44842;SDS011;31884;52.538;13.820;2022-10-31T13:29:38;20.40;;;10.65;;
44842;SDS011;31884;52.538;13.820;2022-10-31T13:32:14;13.15;;;8.50;;
44842;SDS011;31884;52.538;13.820;2022-10-31T13:34:41;12.55;;;7.45;;
44842;SDS011;31884;52.538;13.820;2022-10-31T13:37:17;17.75;;;9.15;;
44842;SDS011;31884;52.538;13.820;2022-10-31T13:40:04;11.55;;;7.32;;
44842;SDS011;31884;52.538;13.820;2022-10-31T13:42:40;21.83;;;10.57;;
44842;SDS011;31884;52.538;13.820;2022-10-31T13:45:15;13.60;;;8.40;;
44842;SDS011;31884;52.538;13.820;2022-10-31T13:47:42;17.08;;;8.73;;
44842;SDS011;31884;52.538;13.820;2022-10-31T13:50:21;10.40;;;7.10;;
44842;SDS011;31884;52.538;13.820;2022-10-31T13:52:48;19.67;;;9.00;;
44842;SDS011;31884;52.538;13.820;2022-10-31T13:58:05;13.40;;;8.68;;
44842;SDS011;31884;52.538;13.820;2022-10-31T14:03:35;14.25;;;8.13;;
44842;SDS011;31884;52.538;13.820;2022-10-31T14:06:02;11.57;;;7.20;;
44842;SDS011;31884;52.538;13.820;2022-10-31T14:08:28;13.93;;;8.48;;
44842;SDS011;31884;52.538;13.820;2022-10-31T14:10:58;11.93;;;7.53;;
44842;SDS011;31884;52.538;13.820;2022-10-31T14:13:42;15.10;;;8.38;;
44842;SDS011;31884;52.538;13.820;2022-10-31T14:18:59;12.15;;;6.85;;
44842;SDS011;31884;52.538;13.820;2022-10-31T14:21:30;11.80;;;7.95;;
44842;SDS011;31884;52.538;13.820;2022-10-31T14:24:02;12.25;;;7.45;;
44842;SDS011;31884;52.538;13.820;2022-10-31T14:26:50;13.25;;;8.32;;
44842;SDS011;31884;52.538;13.820;2022-10-31T14:29:27;9.23;;;6.95;;
44842;SDS011;31884;52.538;13.820;2022-10-31T14:31:58;14.30;;;7.53;;
44842;SDS011;31884;52.538;13.820;2022-10-31T14:34:36;12.38;;;6.43;;
44842;SDS011;31884;52.538;13.820;2022-10-31T14:39:45;11.35;;;6.53;;
44842;SDS011;31884;52.538;13.820;2022-10-31T14:45:08;13.90;;;7.32;;
44842;SDS011;31884;52.538;13.820;2022-10-31T14:53:00;12.18;;;7.53;;
44842;SDS011;31884;52.538;13.820;2022-10-31T14:55:28;14.65;;;7.15;;
44842;SDS011;31884;52.538;13.820;2022-10-31T14:57:55;15.05;;;8.30;;
44842;SDS011;31884;52.538;13.820;2022-10-31T15:00:24;10.88;;;7.25;;
44842;SDS011;31884;52.538;13.820;2022-10-31T15:05:52;13.93;;;8.63;;
44842;SDS011;31884;52.538;13.820;2022-10-31T15:11:02;13.35;;;7.60;;
44842;SDS011;31884;52.538;13.820;2022-10-31T15:13:28;13.88;;;9.30;;
44842;SDS011;31884;52.538;13.820;2022-10-31T15:15:54;14.98;;;10.48;;
44842;SDS011;31884;52.538;13.820;2022-10-31T15:18:24;15.23;;;9.20;;
44842;SDS011;31884;52.538;13.820;2022-10-31T15:20:52;15.77;;;9.38;;
44842;SDS011;31884;52.538;13.820;2022-10-31T15:23:23;12.30;;;7.50;;
44842;SDS011;31884;52.538;13.820;2022-10-31T15:25:50;15.07;;;9.02;;
44842;SDS011;31884;52.538;13.820;2022-10-31T15:28:24;13.20;;;8.85;;
44842;SDS011;31884;52.538;13.820;2022-10-31T15:30:51;21.52;;;10.00;;
44842;SDS011;31884;52.538;13.820;2022-10-31T15:33:25;12.63;;;9.15;;
44842;SDS011;31884;52.538;13.820;2022-10-31T15:35:59;14.85;;;9.60;;
44842;SDS011;31884;52.538;13.820;2022-10-31T15:38:26;14.02;;;9.40;;
44842;SDS011;31884;52.538;13.820;2022-10-31T15:40:54;24.65;;;13.80;;
44842;SDS011;31884;52.538;13.820;2022-10-31T15:43:29;37.30;;;23.90;;
44842;SDS011;31884;52.538;13.820;2022-10-31T15:46:00;27.25;;;13.70;;
44842;SDS011;31884;52.538;13.820;2022-10-31T15:48:27;14.63;;;9.48;;
44842;SDS011;31884;52.538;13.820;2022-10-31T15:50:56;17.23;;;9.40;;
44842;SDS011;31884;52.538;13.820;2022-10-31T15:53:25;16.65;;;10.07;;
44842;SDS011;31884;52.538;13.820;2022-10-31T15:56:08;17.73;;;9.57;;
44842;SDS011;31884;52.538;13.820;2022-10-31T15:58:41;15.82;;;9.85;;
44842;SDS011;31884;52.538;13.820;2022-10-31T16:01:25;17.40;;;11.30;;
44842;SDS011;31884;52.538;13.820;2022-10-31T16:04:01;16.48;;;10.40;;
44842;SDS011;31884;52.538;13.820;2022-10-31T16:06:36;19.75;;;9.77;;
44842;SDS011;31884;52.538;13.820;2022-10-31T16:09:02;24.85;;;10.73;;
44842;SDS011;31884;52.538;13.820;2022-10-31T16:11:33;17.10;;;10.95;;